sensor_id;sensor_type;location;lat;lon;timestamp;P1;durP1;ratioP1;P2;durP2;ratioP2
34783;SDS011;20998;51.388;7.032;2023-08-20T00:00:41;12.70;;;6.10;;
34783;SDS011;20998;51.388;7.032;2023-08-20T00:03:11;11.20;;;6.50;;
34783;SDS011;20998;51.388;7.032;2023-08-20T00:05:38;12.13;;;6.40;;
34783;SDS011;20998;51.388;7.032;2023-08-20T00:08:04;10.90;;;6.00;;
34783;SDS011;20998;51.388;7.032;2023-08-20T00:10:30;8.63;;;6.07;;
34783;SDS011;20998;51.388;7.032;2023-08-20T00:12:57;12.50;;;5.77;;
34783;SDS011;20998;51.388;7.032;2023-08-20T00:15:23;10.60;;;5.97;;
34783;SDS011;20998;51.388;7.032;2023-08-20T00:17:51;10.30;;;5.50;;
34783;SDS011;20998;51.388;7.032;2023-08-20T00:20:17;13.40;;;6.30;;
34783;SDS011;20998;51.388;7.032;2023-08-20T00:22:44;7.80;;;5.50;;
34783;SDS011;20998;51.388;7.032;2023-08-20T00:25:11;10.77;;;5.83;;
34783;SDS011;20998;51.388;7.032;2023-08-20T00:27:38;9.70;;;5.80;;
34783;SDS011;20998;51.388;7.032;2023-08-20T00:30:04;10.07;;;6.63;;
34783;SDS011;20998;51.388;7.032;2023-08-20T00:32:31;8.10;;;5.70;;
34783;SDS011;20998;51.388;7.032;2023-08-20T00:34:57;8.80;;;5.30;;
34783;SDS011;20998;51.388;7.032;2023-08-20T00:37:23;13.67;;;5.97;;
34783;SDS011;20998;51.388;7.032;2023-08-20T00:39:49;13.83;;;5.60;;
34783;SDS011;20998;51.388;7.032;2023-08-20T00:42:14;10.80;;;6.03;;
34783;SDS011;20998;51.388;7.032;2023-08-20T00:44:41;8.60;;;5.50;;
34783;SDS011;20998;51.388;7.032;2023-08-20T00:47:09;9.57;;;5.73;;
34783;SDS011;20998;51.388;7.032;2023-08-20T00:49:35;10.50;;;5.80;;
34783;SDS011;20998;51.388;7.032;2023-08-20T00:52:02;8.53;;;5.53;;
34783;SDS011;20998;51.388;7.032;2023-08-20T00:54:29;9.53;;;5.00;;
34783;SDS011;20998;51.388;7.032;2023-08-20T00:56:55;11.37;;;6.27;;
34783;SDS011;20998;51.388;7.032;2023-08-20T00:59:21;9.70;;;6.30;;
34783;SDS011;20998;51.388;7.032;2023-08-20T01:01:47;10.03;;;6.07;;
34783;SDS011;20998;51.388;7.032;2023-08-20T01:04:13;8.63;;;5.57;;
34783;SDS011;20998;51.388;7.032;2023-08-20T01:09:42;11.77;;;5.93;;
34783;SDS011;20998;51.388;7.032;2023-08-20T01:12:14;11.03;;;5.40;;
34783;SDS011;20998;51.388;7.032;2023-08-20T01:14:42;11.37;;;5.93;;
34783;SDS011;20998;51.388;7.032;2023-08-20T01:17:08;9.70;;;6.00;;
34783;SDS011;20998;51.388;7.032;2023-08-20T01:19:33;7.10;;;4.83;;
34783;SDS011;20998;51.388;7.032;2023-08-20T01:24:38;15.10;;;6.03;;
34783;SDS011;20998;51.388;7.032;2023-08-20T01:29:51;9.13;;;5.17;;
34783;SDS011;20998;51.388;7.032;2023-08-20T01:32:17;8.63;;;5.77;;
34783;SDS011;20998;51.388;7.032;2023-08-20T01:34:44;9.47;;;5.67;;
34783;SDS011;20998;51.388;7.032;2023-08-20T01:37:11;7.80;;;5.60;;
34783;SDS011;20998;51.388;7.032;2023-08-20T01:39:37;7.80;;;5.43;;
34783;SDS011;20998;51.388;7.032;2023-08-20T01:42:03;10.73;;;5.53;;
34783;SDS011;20998;51.388;7.032;2023-08-20T01:44:29;12.77;;;5.90;;
34783;SDS011;20998;51.388;7.032;2023-08-20T01:46:55;11.70;;;6.70;;
34783;SDS011;20998;51.388;7.032;2023-08-20T01:49:20;10.70;;;5.57;;
34783;SDS011;20998;51.388;7.032;2023-08-20T01:51:46;7.90;;;5.53;;
34783;SDS011;20998;51.388;7.032;2023-08-20T01:54:12;9.30;;;6.03;;
34783;SDS011;20998;51.388;7.032;2023-08-20T01:56:38;9.33;;;5.60;;
34783;SDS011;20998;51.388;7.032;2023-08-20T01:59:04;8.27;;;5.67;;
34783;SDS011;20998;51.388;7.032;2023-08-20T02:01:30;11.83;;;5.30;;
34783;SDS011;20998;51.388;7.032;2023-08-20T02:03:56;13.77;;;5.77;;
34783;SDS011;20998;51.388;7.032;2023-08-20T02:06:22;7.90;;;4.60;;
34783;SDS011;20998;51.388;7.032;2023-08-20T02:08:48;17.50;;;6.87;;
34783;SDS011;20998;51.388;7.032;2023-08-20T02:11:14;9.43;;;6.03;;
34783;SDS011;20998;51.388;7.032;2023-08-20T02:13:40;22.77;;;6.33;;
34783;SDS011;20998;51.388;7.032;2023-08-20T02:16:06;8.27;;;4.47;;
34783;SDS011;20998;51.388;7.032;2023-08-20T02:18:32;9.00;;;5.20;;
34783;SDS011;20998;51.388;7.032;2023-08-20T02:20:58;13.37;;;6.03;;
34783;SDS011;20998;51.388;7.032;2023-08-20T02:23:24;13.23;;;5.50;;
34783;SDS011;20998;51.388;7.032;2023-08-20T02:25:50;9.93;;;5.53;;
34783;SDS011;20998;51.388;7.032;2023-08-20T02:28:16;9.93;;;5.00;;
34783;SDS011;20998;51.388;7.032;2023-08-20T02:30:43;10.83;;;5.27;;
34783;SDS011;20998;51.388;7.032;2023-08-20T02:33:09;10.07;;;5.53;;
34783;SDS011;20998;51.388;7.032;2023-08-20T02:35:38;10.00;;;6.20;;
34783;SDS011;20998;51.388;7.032;2023-08-20T02:38:05;10.47;;;5.27;;
34783;SDS011;20998;51.388;7.032;2023-08-20T02:40:31;10.40;;;5.50;;
34783;SDS011;20998;51.388;7.032;2023-08-20T02:42:57;9.67;;;6.00;;
34783;SDS011;20998;51.388;7.032;2023-08-20T02:45:23;15.27;;;5.97;;
34783;SDS011;20998;51.388;7.032;2023-08-20T02:47:49;9.70;;;6.20;;
34783;SDS011;20998;51.388;7.032;2023-08-20T02:50:15;11.07;;;6.30;;
34783;SDS011;20998;51.388;7.032;2023-08-20T02:52:42;8.43;;;5.20;;
34783;SDS011;20998;51.388;7.032;2023-08-20T02:55:07;10.27;;;6.47;;
34783;SDS011;20998;51.388;7.032;2023-08-20T02:57:33;12.77;;;6.00;;
34783;SDS011;20998;51.388;7.032;2023-08-20T02:59:59;10.50;;;6.10;;
34783;SDS011;20998;51.388;7.032;2023-08-20T03:02:25;12.53;;;5.83;;
34783;SDS011;20998;51.388;7.032;2023-08-20T03:04:51;8.73;;;5.40;;
34783;SDS011;20998;51.388;7.032;2023-08-20T03:07:18;12.70;;;5.70;;
34783;SDS011;20998;51.388;7.032;2023-08-20T03:09:44;7.57;;;4.30;;
34783;SDS011;20998;51.388;7.032;2023-08-20T03:12:09;7.60;;;5.40;;
34783;SDS011;20998;51.388;7.032;2023-08-20T03:14:35;10.03;;;5.90;;
34783;SDS011;20998;51.388;7.032;2023-08-20T03:17:01;8.47;;;5.97;;
34783;SDS011;20998;51.388;7.032;2023-08-20T03:19:29;9.23;;;5.80;;
34783;SDS011;20998;51.388;7.032;2023-08-20T03:21:57;11.10;;;5.63;;
34783;SDS011;20998;51.388;7.032;2023-08-20T03:24:23;11.90;;;6.23;;
34783;SDS011;20998;51.388;7.032;2023-08-20T03:26:49;9.40;;;5.87;;
34783;SDS011;20998;51.388;7.032;2023-08-20T03:29:15;12.63;;;5.17;;
34783;SDS011;20998;51.388;7.032;2023-08-20T03:31:41;8.33;;;5.30;;
34783;SDS011;20998;51.388;7.032;2023-08-20T03:34:07;7.97;;;5.20;;
34783;SDS011;20998;51.388;7.032;2023-08-20T03:36:34;9.40;;;5.80;;
34783;SDS011;20998;51.388;7.032;2023-08-20T03:39:00;9.17;;;5.60;;
34783;SDS011;20998;51.388;7.032;2023-08-20T03:41:28;13.27;;;5.50;;
34783;SDS011;20998;51.388;7.032;2023-08-20T03:43:54;9.63;;;5.73;;
34783;SDS011;20998;51.388;7.032;2023-08-20T03:46:20;8.37;;;5.40;;
34783;SDS011;20998;51.388;7.032;2023-08-20T03:48:46;9.53;;;5.80;;
34783;SDS011;20998;51.388;7.032;2023-08-20T03:51:12;8.97;;;6.10;;
34783;SDS011;20998;51.388;7.032;2023-08-20T03:53:38;12.80;;;6.47;;
34783;SDS011;20998;51.388;7.032;2023-08-20T03:56:03;12.37;;;6.43;;
34783;SDS011;20998;51.388;7.032;2023-08-20T03:58:29;10.03;;;6.70;;
34783;SDS011;20998;51.388;7.032;2023-08-20T04:00:55;17.27;;;6.10;;
34783;SDS011;20998;51.388;7.032;2023-08-20T04:03:21;15.57;;;5.93;;
34783;SDS011;20998;51.388;7.032;2023-08-20T04:05:49;11.37;;;6.27;;
34783;SDS011;20998;51.388;7.032;2023-08-20T04:08:14;9.50;;;5.93;;
34783;SDS011;20998;51.388;7.032;2023-08-20T04:10:44;9.37;;;5.90;;
34783;SDS011;20998;51.388;7.032;2023-08-20T04:13:12;9.03;;;5.60;;
34783;SDS011;20998;51.388;7.032;2023-08-20T04:15:39;9.60;;;5.93;;
34783;SDS011;20998;51.388;7.032;2023-08-20T04:18:06;16.77;;;7.00;;
34783;SDS011;20998;51.388;7.032;2023-08-20T04:20:32;15.83;;;5.33;;
34783;SDS011;20998;51.388;7.032;2023-08-20T04:22:58;9.90;;;6.03;;
34783;SDS011;20998;51.388;7.032;2023-08-20T04:25:24;14.17;;;7.03;;
34783;SDS011;20998;51.388;7.032;2023-08-20T04:27:50;11.13;;;7.20;;
34783;SDS011;20998;51.388;7.032;2023-08-20T04:30:15;17.07;;;7.53;;
34783;SDS011;20998;51.388;7.032;2023-08-20T04:32:41;14.47;;;7.50;;
34783;SDS011;20998;51.388;7.032;2023-08-20T04:35:07;14.10;;;8.20;;
34783;SDS011;20998;51.388;7.032;2023-08-20T04:37:33;20.57;;;8.07;;
34783;SDS011;20998;51.388;7.032;2023-08-20T04:39:59;13.10;;;7.53;;
34783;SDS011;20998;51.388;7.032;2023-08-20T04:42:25;16.80;;;8.10;;
34783;SDS011;20998;51.388;7.032;2023-08-20T04:44:51;12.07;;;6.97;;
34783;SDS011;20998;51.388;7.032;2023-08-20T04:47:17;12.37;;;6.97;;
34783;SDS011;20998;51.388;7.032;2023-08-20T04:49:43;12.43;;;7.33;;
34783;SDS011;20998;51.388;7.032;2023-08-20T04:52:09;11.30;;;6.70;;
34783;SDS011;20998;51.388;7.032;2023-08-20T04:54:35;16.27;;;8.03;;
34783;SDS011;20998;51.388;7.032;2023-08-20T04:57:00;11.70;;;7.60;;
34783;SDS011;20998;51.388;7.032;2023-08-20T04:59:27;12.93;;;7.40;;
34783;SDS011;20998;51.388;7.032;2023-08-20T05:01:53;14.13;;;7.93;;
34783;SDS011;20998;51.388;7.032;2023-08-20T05:04:19;15.07;;;8.67;;
34783;SDS011;20998;51.388;7.032;2023-08-20T05:06:46;11.50;;;7.43;;
34783;SDS011;20998;51.388;7.032;2023-08-20T05:09:12;12.43;;;7.63;;
34783;SDS011;20998;51.388;7.032;2023-08-20T05:11:38;10.50;;;7.10;;
34783;SDS011;20998;51.388;7.032;2023-08-20T05:14:04;18.10;;;8.50;;
34783;SDS011;20998;51.388;7.032;2023-08-20T05:16:30;14.17;;;7.27;;
34783;SDS011;20998;51.388;7.032;2023-08-20T05:18:55;11.27;;;7.17;;
34783;SDS011;20998;51.388;7.032;2023-08-20T05:21:21;16.00;;;7.83;;
34783;SDS011;20998;51.388;7.032;2023-08-20T05:23:47;15.47;;;7.83;;
34783;SDS011;20998;51.388;7.032;2023-08-20T05:26:13;14.27;;;7.20;;
34783;SDS011;20998;51.388;7.032;2023-08-20T05:28:39;16.07;;;7.63;;
34783;SDS011;20998;51.388;7.032;2023-08-20T05:31:05;10.93;;;6.67;;
34783;SDS011;20998;51.388;7.032;2023-08-20T05:33:31;14.13;;;7.13;;
34783;SDS011;20998;51.388;7.032;2023-08-20T05:35:57;21.33;;;6.83;;
34783;SDS011;20998;51.388;7.032;2023-08-20T05:38:23;13.73;;;6.60;;
34783;SDS011;20998;51.388;7.032;2023-08-20T05:40:49;13.00;;;6.37;;
34783;SDS011;20998;51.388;7.032;2023-08-20T05:43:15;18.33;;;6.43;;
34783;SDS011;20998;51.388;7.032;2023-08-20T05:45:41;15.53;;;7.33;;
34783;SDS011;20998;51.388;7.032;2023-08-20T05:48:07;15.33;;;7.37;;
34783;SDS011;20998;51.388;7.032;2023-08-20T05:50:33;20.37;;;8.27;;
34783;SDS011;20998;51.388;7.032;2023-08-20T05:53:00;12.80;;;7.37;;
34783;SDS011;20998;51.388;7.032;2023-08-20T05:55:26;16.10;;;9.23;;
34783;SDS011;20998;51.388;7.032;2023-08-20T05:57:52;18.03;;;8.80;;
34783;SDS011;20998;51.388;7.032;2023-08-20T06:00:18;15.53;;;8.73;;
34783;SDS011;20998;51.388;7.032;2023-08-20T06:02:43;18.47;;;9.33;;
34783;SDS011;20998;51.388;7.032;2023-08-20T06:05:09;16.47;;;8.47;;
34783;SDS011;20998;51.388;7.032;2023-08-20T06:07:36;19.83;;;9.70;;
34783;SDS011;20998;51.388;7.032;2023-08-20T06:10:02;20.17;;;11.10;;
34783;SDS011;20998;51.388;7.032;2023-08-20T06:12:27;18.13;;;10.90;;
34783;SDS011;20998;51.388;7.032;2023-08-20T06:14:54;21.70;;;11.07;;
34783;SDS011;20998;51.388;7.032;2023-08-20T06:17:19;20.23;;;10.90;;
34783;SDS011;20998;51.388;7.032;2023-08-20T06:19:45;21.73;;;11.10;;
34783;SDS011;20998;51.388;7.032;2023-08-20T06:22:11;31.43;;;10.80;;
34783;SDS011;20998;51.388;7.032;2023-08-20T06:24:37;19.97;;;9.47;;
34783;SDS011;20998;51.388;7.032;2023-08-20T06:27:03;20.83;;;11.23;;
34783;SDS011;20998;51.388;7.032;2023-08-20T06:29:29;19.47;;;10.60;;
34783;SDS011;20998;51.388;7.032;2023-08-20T06:31:55;21.67;;;10.93;;
34783;SDS011;20998;51.388;7.032;2023-08-20T06:34:21;20.10;;;10.40;;
34783;SDS011;20998;51.388;7.032;2023-08-20T06:36:47;14.67;;;8.90;;
34783;SDS011;20998;51.388;7.032;2023-08-20T06:39:13;20.53;;;9.93;;
34783;SDS011;20998;51.388;7.032;2023-08-20T06:41:40;17.80;;;9.30;;
34783;SDS011;20998;51.388;7.032;2023-08-20T06:44:06;20.17;;;11.03;;
34783;SDS011;20998;51.388;7.032;2023-08-20T06:46:32;14.20;;;9.53;;
34783;SDS011;20998;51.388;7.032;2023-08-20T06:48:58;16.73;;;9.40;;
34783;SDS011;20998;51.388;7.032;2023-08-20T06:51:24;22.67;;;10.40;;
34783;SDS011;20998;51.388;7.032;2023-08-20T06:53:50;17.43;;;10.50;;
34783;SDS011;20998;51.388;7.032;2023-08-20T06:56:16;23.33;;;11.73;;
34783;SDS011;20998;51.388;7.032;2023-08-20T06:58:42;18.23;;;10.87;;
34783;SDS011;20998;51.388;7.032;2023-08-20T07:01:08;18.80;;;10.27;;
34783;SDS011;20998;51.388;7.032;2023-08-20T07:03:34;21.27;;;9.90;;
34783;SDS011;20998;51.388;7.032;2023-08-20T07:06:07;26.10;;;11.33;;
34783;SDS011;20998;51.388;7.032;2023-08-20T07:08:36;25.07;;;10.13;;
34783;SDS011;20998;51.388;7.032;2023-08-20T07:11:04;19.07;;;10.33;;
34783;SDS011;20998;51.388;7.032;2023-08-20T07:13:30;25.73;;;12.67;;
34783;SDS011;20998;51.388;7.032;2023-08-20T07:15:56;27.47;;;12.37;;
34783;SDS011;20998;51.388;7.032;2023-08-20T07:18:22;23.33;;;11.93;;
34783;SDS011;20998;51.388;7.032;2023-08-20T07:20:49;19.53;;;11.63;;
34783;SDS011;20998;51.388;7.032;2023-08-20T07:23:15;37.50;;;14.93;;
34783;SDS011;20998;51.388;7.032;2023-08-20T07:25:41;27.00;;;12.90;;
34783;SDS011;20998;51.388;7.032;2023-08-20T07:28:07;18.63;;;11.53;;
34783;SDS011;20998;51.388;7.032;2023-08-20T07:30:34;14.80;;;9.07;;
34783;SDS011;20998;51.388;7.032;2023-08-20T07:33:00;12.13;;;7.53;;
34783;SDS011;20998;51.388;7.032;2023-08-20T07:35:26;9.53;;;6.50;;
34783;SDS011;20998;51.388;7.032;2023-08-20T07:37:52;11.37;;;7.03;;
34783;SDS011;20998;51.388;7.032;2023-08-20T07:40:18;9.65;;;5.88;;
34783;SDS011;20998;51.388;7.032;2023-08-20T07:42:44;9.13;;;5.40;;
34783;SDS011;20998;51.388;7.032;2023-08-20T07:45:10;10.27;;;5.68;;
34783;SDS011;20998;51.388;7.032;2023-08-20T07:47:36;8.27;;;5.40;;
34783;SDS011;20998;51.388;7.032;2023-08-20T07:50:02;6.78;;;4.93;;
34783;SDS011;20998;51.388;7.032;2023-08-20T07:52:29;7.25;;;5.05;;
34783;SDS011;20998;51.388;7.032;2023-08-20T07:54:55;9.40;;;4.95;;
34783;SDS011;20998;51.388;7.032;2023-08-20T07:57:21;7.40;;;5.10;;
34783;SDS011;20998;51.388;7.032;2023-08-20T07:59:48;8.07;;;5.75;;
34783;SDS011;20998;51.388;7.032;2023-08-20T08:02:14;5.63;;;4.53;;
34783;SDS011;20998;51.388;7.032;2023-08-20T08:04:40;6.47;;;4.65;;
34783;SDS011;20998;51.388;7.032;2023-08-20T08:07:06;6.28;;;4.10;;
34783;SDS011;20998;51.388;7.032;2023-08-20T08:09:32;7.80;;;3.55;;
34783;SDS011;20998;51.388;7.032;2023-08-20T08:11:58;9.65;;;4.18;;
34783;SDS011;20998;51.388;7.032;2023-08-20T08:14:24;6.45;;;3.95;;
34783;SDS011;20998;51.388;7.032;2023-08-20T08:16:50;7.50;;;5.03;;
34783;SDS011;20998;51.388;7.032;2023-08-20T08:19:17;7.07;;;4.50;;
34783;SDS011;20998;51.388;7.032;2023-08-20T08:21:43;8.10;;;6.35;;
34783;SDS011;20998;51.388;7.032;2023-08-20T08:24:10;11.50;;;6.65;;
34783;SDS011;20998;51.388;7.032;2023-08-20T08:26:36;8.52;;;6.15;;
34783;SDS011;20998;51.388;7.032;2023-08-20T08:29:02;9.13;;;5.25;;
34783;SDS011;20998;51.388;7.032;2023-08-20T08:31:28;10.70;;;6.20;;
34783;SDS011;20998;51.388;7.032;2023-08-20T08:33:54;12.90;;;5.35;;
34783;SDS011;20998;51.388;7.032;2023-08-20T08:36:20;9.40;;;5.60;;
34783;SDS011;20998;51.388;7.032;2023-08-20T08:38:46;11.23;;;4.97;;
34783;SDS011;20998;51.388;7.032;2023-08-20T08:41:12;7.45;;;4.82;;
34783;SDS011;20998;51.388;7.032;2023-08-20T08:43:38;4.53;;;3.53;;
34783;SDS011;20998;51.388;7.032;2023-08-20T08:46:12;4.90;;;3.78;;
34783;SDS011;20998;51.388;7.032;2023-08-20T08:48:42;6.70;;;3.30;;
34783;SDS011;20998;51.388;7.032;2023-08-20T08:51:09;6.13;;;3.58;;
34783;SDS011;20998;51.388;7.032;2023-08-20T08:53:35;8.05;;;4.28;;
34783;SDS011;20998;51.388;7.032;2023-08-20T08:56:01;8.88;;;3.83;;
34783;SDS011;20998;51.388;7.032;2023-08-20T08:58:33;5.30;;;4.10;;
34783;SDS011;20998;51.388;7.032;2023-08-20T09:00:59;4.97;;;4.15;;
34783;SDS011;20998;51.388;7.032;2023-08-20T09:03:25;8.52;;;3.95;;
34783;SDS011;20998;51.388;7.032;2023-08-20T09:05:55;10.02;;;4.80;;
34783;SDS011;20998;51.388;7.032;2023-08-20T09:08:27;7.05;;;4.25;;
34783;SDS011;20998;51.388;7.032;2023-08-20T09:10:54;10.23;;;4.13;;
34783;SDS011;20998;51.388;7.032;2023-08-20T09:13:23;19.08;;;4.00;;
34783;SDS011;20998;51.388;7.032;2023-08-20T09:16:08;4.63;;;3.88;;
34783;SDS011;20998;51.388;7.032;2023-08-20T09:18:42;8.05;;;4.07;;
34783;SDS011;20998;51.388;7.032;2023-08-20T09:21:10;9.82;;;4.55;;
34783;SDS011;20998;51.388;7.032;2023-08-20T09:23:38;9.35;;;3.80;;
34783;SDS011;20998;51.388;7.032;2023-08-20T09:26:05;6.45;;;3.50;;
34783;SDS011;20998;51.388;7.032;2023-08-20T09:28:41;6.68;;;3.95;;
34783;SDS011;20998;51.388;7.032;2023-08-20T09:31:08;3.72;;;3.28;;
34783;SDS011;20998;51.388;7.032;2023-08-20T09:33:34;8.18;;;3.95;;
34783;SDS011;20998;51.388;7.032;2023-08-20T09:36:02;6.03;;;4.03;;
34783;SDS011;20998;51.388;7.032;2023-08-20T09:38:29;6.45;;;4.25;;
34783;SDS011;20998;51.388;7.032;2023-08-20T09:40:55;6.85;;;4.55;;
34783;SDS011;20998;51.388;7.032;2023-08-20T09:43:23;6.93;;;4.03;;
34783;SDS011;20998;51.388;7.032;2023-08-20T09:45:53;8.20;;;4.03;;
34783;SDS011;20998;51.388;7.032;2023-08-20T09:48:20;8.55;;;4.90;;
34783;SDS011;20998;51.388;7.032;2023-08-20T09:50:46;10.40;;;4.50;;
34783;SDS011;20998;51.388;7.032;2023-08-20T09:55:52;6.90;;;5.18;;
34783;SDS011;20998;51.388;7.032;2023-08-20T09:58:19;10.38;;;4.50;;
34783;SDS011;20998;51.388;7.032;2023-08-20T10:00:50;6.75;;;4.75;;
34783;SDS011;20998;51.388;7.032;2023-08-20T10:03:19;10.38;;;5.32;;
34783;SDS011;20998;51.388;7.032;2023-08-20T10:05:46;7.78;;;5.38;;
34783;SDS011;20998;51.388;7.032;2023-08-20T10:08:14;6.95;;;4.25;;
34783;SDS011;20998;51.388;7.032;2023-08-20T10:10:40;8.75;;;4.30;;
34783;SDS011;20998;51.388;7.032;2023-08-20T10:13:07;7.28;;;4.38;;
34783;SDS011;20998;51.388;7.032;2023-08-20T10:15:33;6.32;;;5.03;;
34783;SDS011;20998;51.388;7.032;2023-08-20T10:18:01;6.50;;;4.90;;
34783;SDS011;20998;51.388;7.032;2023-08-20T10:20:30;10.80;;;6.45;;
34783;SDS011;20998;51.388;7.032;2023-08-20T10:23:00;7.25;;;5.65;;
34783;SDS011;20998;51.388;7.032;2023-08-20T10:25:27;10.68;;;6.18;;
34783;SDS011;20998;51.388;7.032;2023-08-20T10:27:53;8.00;;;5.57;;
34783;SDS011;20998;51.388;7.032;2023-08-20T10:30:24;9.75;;;5.22;;
34783;SDS011;20998;51.388;7.032;2023-08-20T10:32:56;6.85;;;5.28;;
34783;SDS011;20998;51.388;7.032;2023-08-20T10:35:28;7.95;;;5.20;;
34783;SDS011;20998;51.388;7.032;2023-08-20T10:40:57;7.10;;;5.68;;
34783;SDS011;20998;51.388;7.032;2023-08-20T10:46:03;6.20;;;5.30;;
34783;SDS011;20998;51.388;7.032;2023-08-20T10:48:29;7.22;;;6.07;;
34783;SDS011;20998;51.388;7.032;2023-08-20T10:50:56;9.05;;;6.18;;
34783;SDS011;20998;51.388;7.032;2023-08-20T10:53:22;9.55;;;6.82;;
34783;SDS011;20998;51.388;7.032;2023-08-20T10:55:48;9.63;;;7.30;;
34783;SDS011;20998;51.388;7.032;2023-08-20T10:58:14;9.45;;;7.00;;
34783;SDS011;20998;51.388;7.032;2023-08-20T11:00:41;9.80;;;6.88;;
34783;SDS011;20998;51.388;7.032;2023-08-20T11:03:07;10.85;;;7.03;;
34783;SDS011;20998;51.388;7.032;2023-08-20T11:05:34;9.18;;;6.40;;
34783;SDS011;20998;51.388;7.032;2023-08-20T11:08:00;9.15;;;6.60;;
34783;SDS011;20998;51.388;7.032;2023-08-20T11:10:28;9.55;;;6.15;;
34783;SDS011;20998;51.388;7.032;2023-08-20T11:12:54;9.02;;;6.03;;
34783;SDS011;20998;51.388;7.032;2023-08-20T11:15:20;6.35;;;5.30;;
34783;SDS011;20998;51.388;7.032;2023-08-20T11:17:46;8.98;;;7.10;;
34783;SDS011;20998;51.388;7.032;2023-08-20T11:20:15;13.35;;;8.45;;
34783;SDS011;20998;51.388;7.032;2023-08-20T11:22:41;13.55;;;7.78;;
34783;SDS011;20998;51.388;7.032;2023-08-20T11:25:10;10.93;;;8.55;;
34783;SDS011;20998;51.388;7.032;2023-08-20T11:27:43;11.68;;;9.40;;
34783;SDS011;20998;51.388;7.032;2023-08-20T11:30:09;14.05;;;9.10;;
34783;SDS011;20998;51.388;7.032;2023-08-20T11:32:37;17.45;;;9.30;;
34783;SDS011;20998;51.388;7.032;2023-08-20T11:35:03;13.43;;;9.27;;
34783;SDS011;20998;51.388;7.032;2023-08-20T11:37:30;12.82;;;9.00;;
34783;SDS011;20998;51.388;7.032;2023-08-20T11:39:56;13.10;;;9.80;;
34783;SDS011;20998;51.388;7.032;2023-08-20T11:42:22;16.95;;;9.73;;
34783;SDS011;20998;51.388;7.032;2023-08-20T11:44:48;16.30;;;8.57;;
34783;SDS011;20998;51.388;7.032;2023-08-20T11:47:17;14.10;;;8.43;;
34783;SDS011;20998;51.388;7.032;2023-08-20T11:49:44;13.35;;;8.30;;
34783;SDS011;20998;51.388;7.032;2023-08-20T11:52:10;10.50;;;8.35;;
34783;SDS011;20998;51.388;7.032;2023-08-20T11:54:38;9.75;;;7.82;;
34783;SDS011;20998;51.388;7.032;2023-08-20T11:57:05;8.93;;;7.35;;
34783;SDS011;20998;51.388;7.032;2023-08-20T11:59:31;13.48;;;7.85;;
34783;SDS011;20998;51.388;7.032;2023-08-20T12:01:58;10.13;;;8.07;;
34783;SDS011;20998;51.388;7.032;2023-08-20T12:04:26;11.45;;;7.80;;
34783;SDS011;20998;51.388;7.032;2023-08-20T12:07:05;11.05;;;7.82;;
34783;SDS011;20998;51.388;7.032;2023-08-20T12:09:31;8.95;;;7.90;;
34783;SDS011;20998;51.388;7.032;2023-08-20T12:11:57;10.02;;;7.63;;
34783;SDS011;20998;51.388;7.032;2023-08-20T12:14:23;8.77;;;7.50;;
34783;SDS011;20998;51.388;7.032;2023-08-20T12:16:50;7.70;;;6.90;;
34783;SDS011;20998;51.388;7.032;2023-08-20T12:19:16;7.60;;;6.72;;
34783;SDS011;20998;51.388;7.032;2023-08-20T12:21:42;6.57;;;5.85;;
34783;SDS011;20998;51.388;7.032;2023-08-20T12:24:09;8.52;;;5.20;;
34783;SDS011;20998;51.388;7.032;2023-08-20T12:26:35;9.25;;;5.38;;
34783;SDS011;20998;51.388;7.032;2023-08-20T12:29:01;7.72;;;5.60;;
34783;SDS011;20998;51.388;7.032;2023-08-20T12:31:28;16.20;;;5.30;;
34783;SDS011;20998;51.388;7.032;2023-08-20T12:33:54;8.38;;;5.70;;
34783;SDS011;20998;51.388;7.032;2023-08-20T12:36:19;7.22;;;6.30;;
34783;SDS011;20998;51.388;7.032;2023-08-20T12:38:45;9.82;;;5.80;;
34783;SDS011;20998;51.388;7.032;2023-08-20T12:41:11;7.03;;;5.45;;
34783;SDS011;20998;51.388;7.032;2023-08-20T12:43:37;6.95;;;5.50;;
34783;SDS011;20998;51.388;7.032;2023-08-20T12:46:03;7.55;;;6.00;;
34783;SDS011;20998;51.388;7.032;2023-08-20T12:48:29;9.25;;;6.55;;
34783;SDS011;20998;51.388;7.032;2023-08-20T12:50:55;7.40;;;5.57;;
34783;SDS011;20998;51.388;7.032;2023-08-20T12:53:20;9.88;;;6.35;;
34783;SDS011;20998;51.388;7.032;2023-08-20T12:55:46;7.93;;;5.90;;
34783;SDS011;20998;51.388;7.032;2023-08-20T12:58:12;9.63;;;5.72;;
34783;SDS011;20998;51.388;7.032;2023-08-20T13:00:38;8.32;;;5.30;;
34783;SDS011;20998;51.388;7.032;2023-08-20T13:03:04;7.03;;;5.68;;
34783;SDS011;20998;51.388;7.032;2023-08-20T13:05:30;6.57;;;5.72;;
34783;SDS011;20998;51.388;7.032;2023-08-20T13:07:56;11.02;;;5.65;;
34783;SDS011;20998;51.388;7.032;2023-08-20T13:10:23;14.57;;;6.00;;
34783;SDS011;20998;51.388;7.032;2023-08-20T13:12:50;12.52;;;6.13;;
34783;SDS011;20998;51.388;7.032;2023-08-20T13:15:19;7.22;;;5.15;;
34783;SDS011;20998;51.388;7.032;2023-08-20T13:17:46;10.05;;;5.00;;
34783;SDS011;20998;51.388;7.032;2023-08-20T13:20:13;9.60;;;5.57;;
34783;SDS011;20998;51.388;7.032;2023-08-20T13:22:40;7.15;;;5.55;;
34783;SDS011;20998;51.388;7.032;2023-08-20T13:25:06;8.30;;;5.93;;
34783;SDS011;20998;51.388;7.032;2023-08-20T13:27:32;10.75;;;6.00;;
34783;SDS011;20998;51.388;7.032;2023-08-20T13:29:58;10.10;;;6.15;;
34783;SDS011;20998;51.388;7.032;2023-08-20T13:32:24;6.72;;;5.60;;
34783;SDS011;20998;51.388;7.032;2023-08-20T13:34:50;7.97;;;5.75;;
34783;SDS011;20998;51.388;7.032;2023-08-20T13:37:16;7.95;;;5.30;;
34783;SDS011;20998;51.388;7.032;2023-08-20T13:39:42;7.80;;;5.10;;
34783;SDS011;20998;51.388;7.032;2023-08-20T13:42:08;8.45;;;5.90;;
34783;SDS011;20998;51.388;7.032;2023-08-20T13:44:34;6.55;;;5.53;;
34783;SDS011;20998;51.388;7.032;2023-08-20T13:47:01;7.22;;;5.63;;
34783;SDS011;20998;51.388;7.032;2023-08-20T13:49:27;9.75;;;5.25;;
34783;SDS011;20998;51.388;7.032;2023-08-20T13:51:54;13.20;;;6.45;;
34783;SDS011;20998;51.388;7.032;2023-08-20T13:54:20;9.02;;;5.70;;
34783;SDS011;20998;51.388;7.032;2023-08-20T13:56:46;9.82;;;6.13;;
34783;SDS011;20998;51.388;7.032;2023-08-20T13:59:12;6.70;;;5.95;;
34783;SDS011;20998;51.388;7.032;2023-08-20T14:01:37;7.97;;;6.00;;
34783;SDS011;20998;51.388;7.032;2023-08-20T14:04:03;6.70;;;5.70;;
34783;SDS011;20998;51.388;7.032;2023-08-20T14:06:29;15.13;;;5.43;;
34783;SDS011;20998;51.388;7.032;2023-08-20T14:08:55;8.80;;;5.18;;
34783;SDS011;20998;51.388;7.032;2023-08-20T14:11:21;8.30;;;5.20;;
34783;SDS011;20998;51.388;7.032;2023-08-20T14:13:47;8.23;;;5.57;;
34783;SDS011;20998;51.388;7.032;2023-08-20T14:16:13;7.90;;;5.35;;
34783;SDS011;20998;51.388;7.032;2023-08-20T14:18:39;10.30;;;5.55;;
34783;SDS011;20998;51.388;7.032;2023-08-20T14:21:06;6.45;;;5.03;;
34783;SDS011;20998;51.388;7.032;2023-08-20T14:23:32;7.72;;;5.30;;
34783;SDS011;20998;51.388;7.032;2023-08-20T14:25:58;6.95;;;4.90;;
34783;SDS011;20998;51.388;7.032;2023-08-20T14:28:24;6.50;;;5.53;;
34783;SDS011;20998;51.388;7.032;2023-08-20T14:30:50;5.93;;;5.32;;
34783;SDS011;20998;51.388;7.032;2023-08-20T14:33:18;7.57;;;5.00;;
34783;SDS011;20998;51.388;7.032;2023-08-20T14:35:44;14.85;;;10.95;;
34783;SDS011;20998;51.388;7.032;2023-08-20T14:38:10;7.30;;;5.75;;
34783;SDS011;20998;51.388;7.032;2023-08-20T14:40:37;8.27;;;5.50;;
34783;SDS011;20998;51.388;7.032;2023-08-20T14:43:04;8.98;;;5.10;;
34783;SDS011;20998;51.388;7.032;2023-08-20T14:45:30;7.63;;;5.82;;
34783;SDS011;20998;51.388;7.032;2023-08-20T14:47:56;7.35;;;5.10;;
34783;SDS011;20998;51.388;7.032;2023-08-20T14:50:22;7.18;;;5.75;;
34783;SDS011;20998;51.388;7.032;2023-08-20T14:52:48;11.27;;;5.40;;